Aviation Digital Data Service (ADDS)

Output produced by METARs form (2009 UTC 25 May 2017)
found at http://www.aviationweather.gov/adds/metars/
 
METAR text: KSBP 251956Z 19011KT 10SM BKN016 OVC035 17/11 A2988 RMK AO2 SLP116 T01670111
Conditions at: KSBP (SAN LUIS OBISPO , CA, US) observed 1956 UTC 25 May 2017
Temperature: 16.7°C (62°F)
Dewpoint: 11.1°C (52°F) [RH = 70%]
Pressure (altimeter): 29.88 inches Hg (1011.9 mb)
[Sea-level pressure: 1011.6 mb]
Winds: from the S (190 degrees) at 13 MPH (11 knots; 5.7 m/s)
Visibility: 10 or more miles (16+ km)
Ceiling: 1600 feet AGL
Clouds: broken clouds at 1600 feet AGL
overcast cloud deck at 3500 feet AGL
Weather: no significant weather observed at this time

METAR text: KSBP 251856Z 21012KT 10SM BKN016 BKN027 OVC033 17/11 A2987 RMK AO2 SLP114 T01670111
Conditions at: KSBP (SAN LUIS OBISPO , CA, US) observed 1856 UTC 25 May 2017
Temperature: 16.7°C (62°F)
Dewpoint: 11.1°C (52°F) [RH = 70%]
Pressure (altimeter): 29.87 inches Hg (1011.6 mb)
[Sea-level pressure: 1011.4 mb]
Winds: from the SSW (210 degrees) at 14 MPH (12 knots; 6.2 m/s)
Visibility: 10 or more miles (16+ km)
Ceiling: 1600 feet AGL
Clouds: broken clouds at 1600 feet AGL
broken clouds at 2700 feet AGL
overcast cloud deck at 3300 feet AGL
Weather: no significant weather observed at this time

METAR text: KSBP 251829Z 21007KT 10SM BKN016 BKN027 OVC033 16/11 A2987 RMK AO2 T01610111
Conditions at: KSBP (SAN LUIS OBISPO , CA, US) observed 1829 UTC 25 May 2017
Temperature: 16.1°C (61°F)
Dewpoint: 11.1°C (52°F) [RH = 72%]
Pressure (altimeter): 29.87 inches Hg (1011.6 mb)
Winds: from the SSW (210 degrees) at 8 MPH (7 knots; 3.6 m/s)
Visibility: 10 or more miles (16+ km)
Ceiling: 1600 feet AGL
Clouds: broken clouds at 1600 feet AGL
broken clouds at 2700 feet AGL
overcast cloud deck at 3300 feet AGL
Weather: no significant weather observed at this time

METAR text: KSBP 251806Z 20008KT 10SM FEW015 FEW025 OVC032 16/11 A2987 RMK AO2 T01610111
Conditions at: KSBP (SAN LUIS OBISPO , CA, US) observed 1806 UTC 25 May 2017
Temperature: 16.1°C (61°F)
Dewpoint: 11.1°C (52°F) [RH = 72%]
Pressure (altimeter): 29.87 inches Hg (1011.6 mb)
Winds: from the SSW (200 degrees) at 9 MPH (8 knots; 4.2 m/s)
Visibility: 10 or more miles (16+ km)
Ceiling: 3200 feet AGL
Clouds: few clouds at 1500 feet AGL
few clouds at 2500 feet AGL
overcast cloud deck at 3200 feet AGL
Weather: no significant weather observed at this time

METAR text: KSBP 251756Z 20008KT 10SM SCT015 BKN023 OVC030 16/11 A2987 RMK AO2 SLP113 T01560111 10156 20139 51010
Conditions at: KSBP (SAN LUIS OBISPO , CA, US) observed 1756 UTC 25 May 2017
Temperature: 15.6°C (60°F)
Dewpoint: 11.1°C (52°F) [RH = 75%]
Pressure (altimeter): 29.87 inches Hg (1011.6 mb)
[Sea-level pressure: 1011.3 mb]
Winds: from the SSW (200 degrees) at 9 MPH (8 knots; 4.2 m/s)
Visibility: 10 or more miles (16+ km)
Ceiling: 2300 feet AGL
Clouds: scattered clouds at 1500 feet AGL
broken clouds at 2300 feet AGL
overcast cloud deck at 3000 feet AGL
Weather: no significant weather observed at this time

METAR text: KSBP 251749Z 17009KT 10SM FEW015 BKN026 OVC032 16/11 A2987 RMK AO2 T01560111
Conditions at: KSBP (SAN LUIS OBISPO , CA, US) observed 1749 UTC 25 May 2017
Temperature: 15.6°C (60°F)
Dewpoint: 11.1°C (52°F) [RH = 75%]
Pressure (altimeter): 29.87 inches Hg (1011.6 mb)
Winds: from the S (170 degrees) at 10 MPH (9 knots; 4.7 m/s)
Visibility: 10 or more miles (16+ km)
Ceiling: 2600 feet AGL
Clouds: few clouds at 1500 feet AGL
broken clouds at 2600 feet AGL
overcast cloud deck at 3200 feet AGL
Weather: no significant weather observed at this time

METAR text: KSBP 251656Z COR 19008KT 10SM SCT008 BKN012 OVC029 16/11 A2986 RMK AO2 SLP110 T01560111
Conditions at: KSBP (SAN LUIS OBISPO , CA, US) observed 1656 UTC 25 May 2017
Temperature: 15.6°C (60°F)
Dewpoint: 11.1°C (52°F) [RH = 75%]
Pressure (altimeter): 29.86 inches Hg (1011.3 mb)
[Sea-level pressure: 1011.0 mb]
Winds: from the S (190 degrees) at 9 MPH (8 knots; 4.2 m/s)
Visibility: 10 or more miles (16+ km)
Ceiling: 1200 feet AGL
Clouds: scattered clouds at 800 feet AGL
broken clouds at 1200 feet AGL
overcast cloud deck at 2900 feet AGL
Weather: no significant weather observed at this time

METAR text: KSBP 251556Z 14005KT 10SM SCT009 BKN015 OVC023 15/11 A2985 RMK AO2 SLP107 T01500111
Conditions at: KSBP (SAN LUIS OBISPO , CA, US) observed 1556 UTC 25 May 2017
Temperature: 15.0°C (59°F)
Dewpoint: 11.1°C (52°F) [RH = 77%]
Pressure (altimeter): 29.85 inches Hg (1010.9 mb)
[Sea-level pressure: 1010.7 mb]
Winds: from the SE (140 degrees) at 6 MPH (5 knots; 2.6 m/s)
Visibility: 10 or more miles (16+ km)
Ceiling: 1500 feet AGL
Clouds: scattered clouds at 900 feet AGL
broken clouds at 1500 feet AGL
overcast cloud deck at 2300 feet AGL
Weather: no significant weather observed at this time

METAR text: KSBP 251530Z 15005KT 10SM SCT009 BKN015 OVC021 14/11 A2984 RMK AO2 T01440106
Conditions at: KSBP (SAN LUIS OBISPO , CA, US) observed 1530 UTC 25 May 2017
Temperature: 14.4°C (58°F)
Dewpoint: 10.6°C (51°F) [RH = 78%]
Pressure (altimeter): 29.84 inches Hg (1010.6 mb)
Winds: from the SSE (150 degrees) at 6 MPH (5 knots; 2.6 m/s)
Visibility: 10 or more miles (16+ km)
Ceiling: 1500 feet AGL
Clouds: scattered clouds at 900 feet AGL
broken clouds at 1500 feet AGL
overcast cloud deck at 2100 feet AGL
Weather: no significant weather observed at this time

METAR text: KSBP 251456Z 14006KT 9SM BKN016 OVC020 14/11 A2984 RMK AO2 SLP103 T01440111 53003
Conditions at: KSBP (SAN LUIS OBISPO , CA, US) observed 1456 UTC 25 May 2017
Temperature: 14.4°C (58°F)
Dewpoint: 11.1°C (52°F) [RH = 81%]
Pressure (altimeter): 29.84 inches Hg (1010.6 mb)
[Sea-level pressure: 1010.3 mb]
Winds: from the SE (140 degrees) at 7 MPH (6 knots; 3.1 m/s)
Visibility: 9 miles (14 km)
Ceiling: 1600 feet AGL
Clouds: broken clouds at 1600 feet AGL
overcast cloud deck at 2000 feet AGL
Weather: no significant weather observed at this time

METAR text: KSBP 251403Z 14006KT 10SM BKN016 OVC020 14/11 A2983 RMK AO2 T01440106
Conditions at: KSBP (SAN LUIS OBISPO , CA, US) observed 1403 UTC 25 May 2017
Temperature: 14.4°C (58°F)
Dewpoint: 10.6°C (51°F) [RH = 78%]
Pressure (altimeter): 29.83 inches Hg (1010.2 mb)
Winds: from the SE (140 degrees) at 7 MPH (6 knots; 3.1 m/s)
Visibility: 10 or more miles (16+ km)
Ceiling: 1600 feet AGL
Clouds: broken clouds at 1600 feet AGL
overcast cloud deck at 2000 feet AGL
Weather: no significant weather observed at this time

METAR text: KSBP 251356Z COR 13006KT 10SM BKN016 OVC022 14/11 A2983 RMK AO2 SLP099 T01440106
Conditions at: KSBP (SAN LUIS OBISPO , CA, US) observed 1356 UTC 25 May 2017
Temperature: 14.4°C (58°F)
Dewpoint: 10.6°C (51°F) [RH = 78%]
Pressure (altimeter): 29.83 inches Hg (1010.2 mb)
[Sea-level pressure: 1009.9 mb]
Winds: from the SE (130 degrees) at 7 MPH (6 knots; 3.1 m/s)
Visibility: 10 or more miles (16+ km)
Ceiling: 1600 feet AGL
Clouds: broken clouds at 1600 feet AGL
overcast cloud deck at 2200 feet AGL
Weather: no significant weather observed at this time

METAR text: KSBP 251256Z 15005KT 10SM BKN014 OVC022 14/10 A2983 RMK AO2 SLP098 T01390100
Conditions at: KSBP (SAN LUIS OBISPO , CA, US) observed 1256 UTC 25 May 2017
Temperature: 13.9°C (57°F)
Dewpoint: 10.0°C (50°F) [RH = 77%]
Pressure (altimeter): 29.83 inches Hg (1010.2 mb)
[Sea-level pressure: 1009.8 mb]
Winds: from the SSE (150 degrees) at 6 MPH (5 knots; 2.6 m/s)
Visibility: 10 or more miles (16+ km)
Ceiling: 1400 feet AGL
Clouds: broken clouds at 1400 feet AGL
overcast cloud deck at 2200 feet AGL
Weather: no significant weather observed at this time